createdAt,value
2023-03-04T00:00:34.431Z,1.20
2023-03-04T00:03:02.284Z,1.20
2023-03-04T00:05:31.093Z,1.20
2023-03-04T00:07:58.801Z,1.10
2023-03-04T00:10:26.517Z,1.10
2023-03-04T00:12:54.246Z,1.10
2023-03-04T00:15:21.994Z,1.10
2023-03-04T00:17:51.079Z,1.10
2023-03-04T00:20:19.011Z,1.10
2023-03-04T00:22:47.988Z,1.00
2023-03-04T00:25:16.239Z,0.90
2023-03-04T00:27:43.939Z,0.90
2023-03-04T00:30:12.721Z,1.00
2023-03-04T00:32:40.456Z,0.90
2023-03-04T00:35:10.285Z,0.90
2023-03-04T00:37:38.165Z,0.90
2023-03-04T00:40:07.126Z,0.90
2023-03-04T00:42:34.898Z,0.90
2023-03-04T00:45:02.684Z,0.80
2023-03-04T00:47:31.171Z,0.80
2023-03-04T00:49:59.110Z,0.80
2023-03-04T00:52:28.745Z,0.80
2023-03-04T00:54:56.487Z,0.80
2023-03-04T00:57:24.217Z,0.70
2023-03-04T00:59:51.978Z,0.70
2023-03-04T01:02:19.725Z,0.70
2023-03-04T01:04:47.478Z,0.70
2023-03-04T01:07:15.215Z,0.70
2023-03-04T01:09:44.379Z,0.70
2023-03-04T01:12:12.131Z,0.70
2023-03-04T01:14:39.951Z,0.60
2023-03-04T01:17:07.944Z,0.60
2023-03-04T01:19:35.730Z,0.50
2023-03-04T01:22:03.367Z,0.50
2023-03-04T01:24:31.743Z,0.50
2023-03-04T01:27:00.888Z,0.40
2023-03-04T01:29:30.326Z,0.40
2023-03-04T01:31:58.180Z,0.40
2023-03-04T01:34:26.018Z,0.40
2023-03-04T01:36:53.813Z,0.40
2023-03-04T01:39:21.639Z,0.40
2023-03-04T01:41:49.423Z,0.40
2023-03-04T01:44:19.435Z,0.40
2023-03-04T01:46:51.225Z,0.40
2023-03-04T01:49:21.412Z,0.30
2023-03-04T01:51:52.198Z,0.20
2023-03-04T01:54:21.295Z,0.20
2023-03-04T01:56:51.292Z,0.10
2023-03-04T01:59:25.372Z,0.10
2023-03-04T02:01:55.179Z,0.10
2023-03-04T02:04:25.687Z,0.10
2023-03-04T02:06:53.914Z,0.10
2023-03-04T02:09:22.805Z,0.10
2023-03-04T02:11:51.960Z,0.10
2023-03-04T02:14:21.916Z,0.10
2023-03-04T02:16:50.697Z,0.10
2023-03-04T02:19:32.623Z,0.00
2023-03-04T02:22:00.558Z,0.00
2023-03-04T02:24:35.747Z,0.00
2023-03-04T02:27:04.999Z,-0.10
2023-03-04T02:29:33.110Z,-0.10
2023-03-04T02:32:01.243Z,-0.10
2023-03-04T02:34:32.273Z,-0.10
2023-03-04T02:37:00.595Z,-0.10
2023-03-04T02:39:33.747Z,-0.20
2023-03-04T02:42:02.975Z,-0.20
2023-03-04T02:44:36.030Z,-0.20
2023-03-04T02:47:05.925Z,-0.20
2023-03-04T02:49:35.229Z,-0.20
2023-03-04T02:52:05.594Z,-0.20
2023-03-04T02:54:34.320Z,-0.20
2023-03-04T02:57:04.740Z,-0.20
2023-03-04T02:59:36.994Z,-0.20
2023-03-04T03:02:06.121Z,-0.20
2023-03-04T03:04:36.890Z,-0.30
2023-03-04T03:07:08.696Z,-0.40
2023-03-04T03:09:37.421Z,-0.40
2023-03-04T03:12:05.353Z,-0.50
2023-03-04T03:14:34.208Z,-0.50
2023-03-04T03:17:05.217Z,-0.40
2023-03-04T03:19:33.090Z,-0.50
2023-03-04T03:22:04.595Z,-0.50
2023-03-04T03:24:32.449Z,-0.40
2023-03-04T03:27:00.505Z,-0.40
2023-03-04T03:29:29.000Z,-0.50
2023-03-04T03:31:57.114Z,-0.50
2023-03-04T03:34:26.437Z,-0.50
2023-03-04T03:36:54.224Z,-0.50
2023-03-04T03:39:22.125Z,-0.50
2023-03-04T03:41:50.122Z,-0.50
2023-03-04T03:44:17.966Z,-0.60
2023-03-04T03:46:46.751Z,-0.70
2023-03-04T03:49:14.494Z,-0.70
2023-03-04T03:51:43.831Z,-0.60
2023-03-04T03:54:11.593Z,-0.60
2023-03-04T03:56:39.471Z,-0.60
2023-03-04T03:59:07.566Z,-0.60
2023-03-04T04:01:35.502Z,-0.60
2023-03-04T04:04:03.190Z,-0.60
2023-03-04T04:06:30.923Z,-0.60
2023-03-04T04:08:59.925Z,-0.60
2023-03-04T04:11:27.949Z,-0.60
2023-03-04T04:13:55.636Z,-0.70
2023-03-04T04:16:23.452Z,-0.70
2023-03-04T04:18:51.316Z,-0.70
2023-03-04T04:21:19.415Z,-0.70
2023-03-04T04:23:47.187Z,-0.80
2023-03-04T04:26:16.260Z,-0.80
2023-03-04T04:28:43.991Z,-0.80
2023-03-04T04:31:11.763Z,-0.80
2023-03-04T04:33:39.841Z,-0.80
2023-03-04T04:36:10.291Z,-0.80
2023-03-04T04:38:38.042Z,-0.80
2023-03-04T04:41:06.267Z,-0.90
2023-03-04T04:43:35.613Z,-0.90
2023-03-04T04:46:03.301Z,-0.90
2023-03-04T04:48:31.039Z,-0.90
2023-03-04T04:50:58.778Z,-0.90
2023-03-04T04:53:26.574Z,-0.90
2023-03-04T04:55:54.551Z,-0.90
2023-03-04T04:58:22.385Z,-1.00
2023-03-04T05:00:51.517Z,-1.00
2023-03-04T05:03:21.414Z,-1.00
2023-03-04T05:05:50.476Z,-1.00
2023-03-04T05:08:18.397Z,-1.10
2023-03-04T05:10:46.120Z,-1.10
2023-03-04T05:13:13.872Z,-1.20
2023-03-04T05:15:41.632Z,-1.10
2023-03-04T05:18:10.798Z,-1.10
2023-03-04T05:20:38.500Z,-1.20
2023-03-04T05:23:06.267Z,-1.20
2023-03-04T05:25:34.219Z,-1.20
2023-03-04T05:28:02.561Z,-1.30
2023-03-04T05:30:30.319Z,-1.30
2023-03-04T05:32:58.075Z,-1.30
2023-03-04T05:35:28.964Z,-1.30
2023-03-04T05:37:57.349Z,-1.40
2023-03-04T05:40:25.654Z,-1.40
2023-03-04T05:42:53.508Z,-1.40
2023-03-04T05:45:21.266Z,-1.40
2023-03-04T05:47:49.500Z,-1.40
2023-03-04T05:50:17.530Z,-1.40
2023-03-04T05:52:46.791Z,-1.40
2023-03-04T05:55:15.259Z,-1.40
2023-03-04T05:57:43.318Z,-1.50
2023-03-04T06:00:13.065Z,-1.50
2023-03-04T06:02:43.394Z,-1.50
2023-03-04T06:05:11.899Z,-1.50
2023-03-04T06:07:42.989Z,-1.50
2023-03-04T06:10:14.273Z,-1.40
2023-03-04T06:12:42.280Z,-1.50
2023-03-04T06:15:11.374Z,-1.50
2023-03-04T06:17:42.343Z,-1.60
2023-03-04T06:20:12.623Z,-1.50
2023-03-04T06:22:40.461Z,-1.60
2023-03-04T06:25:10.814Z,-1.60
2023-03-04T06:27:42.433Z,-1.60
2023-03-04T06:30:13.228Z,-1.50
2023-03-04T06:32:44.161Z,-1.60
2023-03-04T06:35:12.164Z,-1.50
2023-03-04T06:37:41.533Z,-1.50
2023-03-04T06:40:11.097Z,-1.50
2023-03-04T06:42:40.128Z,-1.40
2023-03-04T06:45:11.230Z,-1.30
2023-03-04T06:47:39.735Z,-1.30
2023-03-04T06:50:08.005Z,-1.20
2023-03-04T06:52:36.132Z,-1.10
2023-03-04T06:55:04.318Z,-1.00
2023-03-04T06:57:32.626Z,-0.90
2023-03-04T07:00:00.419Z,-0.80
2023-03-04T07:02:29.468Z,-0.70
2023-03-04T07:04:57.501Z,-0.50
2023-03-04T07:07:26.210Z,-0.40
2023-03-04T07:09:56.307Z,-0.10
2023-03-04T07:12:24.305Z,0.30
2023-03-04T07:14:52.001Z,0.80
2023-03-04T07:17:19.801Z,1.30
2023-03-04T07:19:48.868Z,2.10
2023-03-04T07:22:16.637Z,2.80
2023-03-04T07:24:44.808Z,3.30
2023-03-04T07:27:13.186Z,3.50
2023-03-04T07:29:41.158Z,3.60
2023-03-04T07:32:09.678Z,3.80
2023-03-04T07:34:37.612Z,4.10
2023-03-04T07:37:06.786Z,4.40
2023-03-04T07:39:35.806Z,5.00
2023-03-04T07:42:04.697Z,5.50
2023-03-04T07:44:39.941Z,6.20
2023-03-04T07:47:07.901Z,7.20
2023-03-04T07:49:35.798Z,7.80
2023-03-04T07:52:06.249Z,8.50
2023-03-04T07:54:34.077Z,9.50
2023-03-04T07:57:01.858Z,10.40
2023-03-04T07:59:29.768Z,10.70
2023-03-04T08:01:57.542Z,10.70
2023-03-04T08:04:25.349Z,11.40
2023-03-04T08:06:54.371Z,11.50
2023-03-04T08:09:23.507Z,10.40
2023-03-04T08:11:51.404Z,9.70
2023-03-04T08:14:19.201Z,9.20
2023-03-04T08:16:47.010Z,8.90
2023-03-04T08:19:14.696Z,8.40
2023-03-04T08:21:42.396Z,7.80
2023-03-04T08:24:11.956Z,6.90
2023-03-04T08:26:43.636Z,6.60
2023-03-04T08:29:13.970Z,6.30
2023-03-04T08:31:41.787Z,6.10
2023-03-04T08:34:11.374Z,5.80
2023-03-04T08:36:39.120Z,5.60
2023-03-04T08:39:07.600Z,5.70
2023-03-04T08:41:36.351Z,5.50
2023-03-04T08:44:08.038Z,5.50
2023-03-04T08:46:36.042Z,5.40
2023-03-04T08:49:04.347Z,5.30
2023-03-04T08:51:32.866Z,5.20
2023-03-04T08:54:01.013Z,5.20
2023-03-04T08:56:28.819Z,5.20
2023-03-04T08:58:56.676Z,5.40
2023-03-04T09:01:25.714Z,5.30
2023-03-04T09:03:54.833Z,5.30
2023-03-04T09:06:22.945Z,5.50
2023-03-04T09:08:52.144Z,5.60
2023-03-04T09:11:20.630Z,5.70
2023-03-04T09:13:49.160Z,5.70
2023-03-04T09:16:16.951Z,5.80
2023-03-04T09:18:46.275Z,6.10
2023-03-04T09:21:15.501Z,6.40
2023-03-04T09:23:43.277Z,6.60
2023-03-04T09:26:23.079Z,6.60
2023-03-04T09:28:52.483Z,6.60
2023-03-04T09:31:20.655Z,6.50
2023-03-04T09:33:50.305Z,6.50
2023-03-04T09:36:18.656Z,6.30
2023-03-04T09:38:46.739Z,6.30
2023-03-04T09:41:18.030Z,6.40
2023-03-04T09:43:48.342Z,6.40
2023-03-04T09:46:20.156Z,6.50
2023-03-04T09:48:52.156Z,6.50
2023-03-04T09:51:23.448Z,6.60
2023-03-04T09:54:06.231Z,6.50
2023-03-04T09:56:37.446Z,6.50
2023-03-04T09:59:14.967Z,6.70
2023-03-04T10:01:50.351Z,6.90
2023-03-04T10:04:26.970Z,6.90
2023-03-04T10:06:55.795Z,6.90
2023-03-04T10:09:26.978Z,7.10
2023-03-04T10:12:01.569Z,7.00
2023-03-04T10:14:36.063Z,7.50
2023-03-04T10:17:09.756Z,7.80
2023-03-04T10:19:51.702Z,8.20
2023-03-04T10:22:24.355Z,8.50
2023-03-04T10:24:59.270Z,9.00
2023-03-04T10:27:30.140Z,9.10
2023-03-04T10:30:00.489Z,9.30
2023-03-04T10:32:28.422Z,9.40
2023-03-04T10:34:57.600Z,9.70
2023-03-04T10:37:25.937Z,9.60
2023-03-04T10:39:53.872Z,9.40
2023-03-04T10:42:32.092Z,9.30
2023-03-04T10:45:01.577Z,9.30
2023-03-04T10:47:31.503Z,9.20
2023-03-04T10:50:02.675Z,9.20
2023-03-04T10:52:31.844Z,9.10
2023-03-04T10:55:01.907Z,8.90
2023-03-04T10:57:35.619Z,8.80
2023-03-04T11:00:04.730Z,8.70
2023-03-04T11:02:33.658Z,8.70
2023-03-04T11:05:18.753Z,8.70
2023-03-04T11:07:55.894Z,8.60
2023-03-04T11:10:28.161Z,8.40
2023-03-04T11:13:01.328Z,8.40
2023-03-04T11:15:31.234Z,8.60
2023-03-04T11:18:03.962Z,8.80
2023-03-04T11:20:35.546Z,8.90
2023-03-04T11:23:07.452Z,8.90
2023-03-04T11:25:37.192Z,8.80
2023-03-04T11:28:12.536Z,8.50
2023-03-04T11:30:44.160Z,8.50
2023-03-04T11:33:21.777Z,8.30
2023-03-04T11:36:04.739Z,8.30
2023-03-04T11:38:36.255Z,8.20
2023-03-04T11:41:07.111Z,8.00
2023-03-04T11:43:37.673Z,7.60
2023-03-04T11:46:28.269Z,7.40
2023-03-04T11:49:10.389Z,7.50
2023-03-04T11:51:49.552Z,7.50
2023-03-04T11:54:32.384Z,7.50
2023-03-04T11:57:03.826Z,7.60
2023-03-04T11:59:51.019Z,7.60
2023-03-04T12:02:21.448Z,7.50
2023-03-04T12:05:08.644Z,7.60
2023-03-04T12:07:50.159Z,7.50
2023-03-04T12:10:27.675Z,7.40
2023-03-04T12:13:16.428Z,7.50
2023-03-04T12:15:51.158Z,7.50
2023-03-04T12:18:35.894Z,7.50
2023-03-04T12:21:19.297Z,7.60
2023-03-04T12:24:15.965Z,7.70
2023-03-04T12:26:50.390Z,7.90
2023-03-04T12:29:28.165Z,7.90
2023-03-04T12:32:09.128Z,7.80
2023-03-04T12:35:00.993Z,7.60
2023-03-04T12:37:42.719Z,7.70
2023-03-04T12:40:24.322Z,7.60
2023-03-04T12:43:05.181Z,7.70
2023-03-04T12:45:40.670Z,7.80
2023-03-04T12:48:24.256Z,7.80
2023-03-04T12:51:04.253Z,7.80
2023-03-04T12:53:44.187Z,7.80
2023-03-04T12:56:23.556Z,7.70
2023-03-04T12:58:51.816Z,7.70
2023-03-04T13:01:25.596Z,7.70
2023-03-04T13:04:01.411Z,7.50
2023-03-04T13:06:40.549Z,7.10
2023-03-04T13:09:13.702Z,7.30
2023-03-04T13:11:52.563Z,7.30
2023-03-04T13:14:26.710Z,7.50
2023-03-04T13:16:55.960Z,7.50
2023-03-04T13:19:47.183Z,7.60
2023-03-04T13:22:31.235Z,7.70
2023-03-04T13:25:00.844Z,7.60
2023-03-04T13:27:49.185Z,7.60
2023-03-04T13:30:46.787Z,7.60
2023-03-04T13:33:44.458Z,7.30
2023-03-04T13:36:33.656Z,7.30
2023-03-04T13:39:04.375Z,7.60
2023-03-04T13:41:46.818Z,7.70
2023-03-04T13:44:44.341Z,7.70
2023-03-04T13:47:19.285Z,7.80
2023-03-04T13:49:49.401Z,7.90
2023-03-04T13:52:39.212Z,8.00
2023-03-04T13:55:31.866Z,8.10
2023-03-04T13:57:59.815Z,7.90
2023-03-04T14:00:29.195Z,8.00
2023-03-04T14:03:11.593Z,8.10
2023-03-04T14:05:39.288Z,8.20
2023-03-04T14:08:19.056Z,8.10
2023-03-04T14:10:55.972Z,8.10
2023-03-04T14:13:25.421Z,8.00
2023-03-04T14:15:57.332Z,8.00
2023-03-04T14:18:28.010Z,8.10
2023-03-04T14:20:58.968Z,8.10
2023-03-04T14:23:29.857Z,8.20
2023-03-04T14:26:06.961Z,8.10
2023-03-04T14:28:42.878Z,8.00
2023-03-04T14:31:18.070Z,7.90
2023-03-04T14:33:50.088Z,7.90
2023-03-04T14:36:21.328Z,7.80
2023-03-04T14:38:54.623Z,7.90
2023-03-04T14:41:26.634Z,7.70
2023-03-04T14:44:00.729Z,7.60
2023-03-04T14:46:35.364Z,7.50
2023-03-04T14:49:04.621Z,7.50
2023-03-04T14:51:38.394Z,7.50
2023-03-04T14:54:06.557Z,7.40
2023-03-04T14:56:35.614Z,7.30
2023-03-04T14:59:03.573Z,7.20
2023-03-04T15:01:34.364Z,7.10
2023-03-04T15:04:05.626Z,7.10
2023-03-04T15:06:35.961Z,7.20
2023-03-04T15:09:06.229Z,7.20
2023-03-04T15:11:46.322Z,7.30
2023-03-04T15:14:43.822Z,7.30
2023-03-04T15:17:25.816Z,7.30
2023-03-04T15:20:18.991Z,7.40
2023-03-04T15:23:03.852Z,7.40
2023-03-04T15:25:32.009Z,7.40
2023-03-04T15:28:02.857Z,7.50
2023-03-04T15:30:34.445Z,7.50
2023-03-04T15:33:02.549Z,7.50
2023-03-04T15:35:33.999Z,7.50
2023-03-04T15:38:02.293Z,7.50
2023-03-04T15:40:32.858Z,7.50
2023-03-04T15:43:06.186Z,7.50
2023-03-04T15:45:37.426Z,7.40
2023-03-04T15:48:07.822Z,7.50
2023-03-04T15:50:40.232Z,7.50
2023-03-04T15:53:10.314Z,7.50
2023-03-04T15:55:38.441Z,7.40
2023-03-04T15:58:07.148Z,7.40
2023-03-04T16:00:35.840Z,7.30
2023-03-04T16:03:05.344Z,7.30
2023-03-04T16:05:37.886Z,7.30
2023-03-04T16:08:05.979Z,7.30
2023-03-04T16:10:34.379Z,7.30
2023-03-04T16:13:02.117Z,7.30
2023-03-04T16:15:31.288Z,7.20
2023-03-04T16:17:59.573Z,7.20
2023-03-04T16:20:30.604Z,7.10
2023-03-04T16:23:01.481Z,7.00
2023-03-04T16:25:30.199Z,7.00
2023-03-04T16:27:58.954Z,7.00
2023-03-04T16:30:28.006Z,7.00
2023-03-04T16:32:57.106Z,7.00
2023-03-04T16:35:27.615Z,7.00
2023-03-04T16:37:59.536Z,7.00
2023-03-04T16:40:30.138Z,6.90
2023-03-04T16:43:00.214Z,6.90
2023-03-04T16:45:30.866Z,6.90
2023-03-04T16:47:59.026Z,6.90
2023-03-04T16:50:30.142Z,6.80
2023-03-04T16:52:59.565Z,6.80
2023-03-04T16:55:29.158Z,6.60
2023-03-04T16:57:58.896Z,6.60
2023-03-04T17:27:52.242Z,5.60
2023-03-04T17:30:47.860Z,5.50
2023-03-04T17:33:19.072Z,5.50
2023-03-04T17:35:47.606Z,5.60
2023-03-04T17:38:16.093Z,5.60
2023-03-04T17:40:44.798Z,5.80
2023-03-04T17:43:14.157Z,5.80
2023-03-04T17:45:43.021Z,5.90
2023-03-04T17:48:15.133Z,6.00
2023-03-04T17:50:49.657Z,6.00
2023-03-04T17:53:19.000Z,6.00
2023-03-04T17:55:52.851Z,6.10
2023-03-04T17:58:25.413Z,6.10
2023-03-04T18:00:56.427Z,6.10
2023-03-04T18:03:25.412Z,6.20
2023-03-04T18:05:53.121Z,6.20
2023-03-04T18:08:23.534Z,6.20
2023-03-04T18:10:52.019Z,6.00
2023-03-04T18:13:20.534Z,5.80
2023-03-04T18:15:50.229Z,5.70
2023-03-04T18:18:20.086Z,5.60
2023-03-04T18:20:49.290Z,5.40
2023-03-04T18:23:17.153Z,5.50
2023-03-04T18:25:45.547Z,5.60
2023-03-04T18:28:14.535Z,5.50
2023-03-04T18:30:44.833Z,5.40
2023-03-04T18:33:14.414Z,5.30
2023-03-04T18:35:42.271Z,5.40
2023-03-04T18:38:10.137Z,5.50
2023-03-04T18:40:39.838Z,5.60
2023-03-04T18:43:07.606Z,5.60
2023-03-04T18:45:35.386Z,5.60
2023-03-04T18:48:05.689Z,5.60
2023-03-04T18:50:34.788Z,5.40
2023-03-04T18:53:02.660Z,5.20
2023-03-04T18:55:31.801Z,5.20
2023-03-04T18:58:05.753Z,5.40
2023-03-04T19:00:35.911Z,5.50
2023-03-04T19:03:06.852Z,5.60
2023-03-04T19:05:36.196Z,5.60
2023-03-04T19:08:06.686Z,5.70
2023-03-04T19:10:34.696Z,5.70
2023-03-04T19:13:03.258Z,5.70
2023-03-04T19:15:32.093Z,5.80
2023-03-04T19:17:59.939Z,5.80
2023-03-04T19:20:27.683Z,5.80
2023-03-04T19:22:56.700Z,5.80
2023-03-04T19:25:24.440Z,5.90
2023-03-04T19:27:55.273Z,5.80
2023-03-04T19:30:23.184Z,5.80
2023-03-04T19:32:51.125Z,5.70
2023-03-04T19:35:21.263Z,5.80
2023-03-04T19:37:49.119Z,5.80
2023-03-04T19:40:18.436Z,5.80
2023-03-04T19:42:46.148Z,5.80
2023-03-04T19:45:13.948Z,5.80
2023-03-04T19:47:41.792Z,5.80
2023-03-04T19:50:13.273Z,5.80
2023-03-04T19:52:42.076Z,5.80
2023-03-04T19:55:12.599Z,5.80
2023-03-04T19:57:42.637Z,5.80
2023-03-04T20:00:13.225Z,5.80
2023-03-04T20:02:43.042Z,5.70
2023-03-04T20:05:12.306Z,5.60
2023-03-04T20:07:40.626Z,5.60
2023-03-04T20:10:09.797Z,5.70
2023-03-04T20:12:38.838Z,5.70
2023-03-04T20:15:11.301Z,5.70
2023-03-04T20:17:39.090Z,5.70
2023-03-04T20:20:10.430Z,5.70
2023-03-04T20:22:38.949Z,5.70
2023-03-04T20:25:07.192Z,5.70
2023-03-04T20:27:34.951Z,5.70
2023-03-04T20:30:04.097Z,5.80
2023-03-04T20:32:33.391Z,5.70
2023-03-04T20:35:02.312Z,5.70
2023-03-04T20:37:30.100Z,5.70
2023-03-04T20:40:03.016Z,5.70
2023-03-04T20:42:31.968Z,5.80
2023-03-04T20:45:01.180Z,5.80
2023-03-04T20:47:31.031Z,5.70
2023-03-04T20:50:00.038Z,5.70
2023-03-04T20:52:28.289Z,5.80
2023-03-04T20:54:56.249Z,5.80
2023-03-04T20:57:25.143Z,5.80
2023-03-04T20:59:52.973Z,5.70
2023-03-04T21:02:23.406Z,5.70
2023-03-04T21:04:51.446Z,5.70
2023-03-04T21:07:20.462Z,5.70
2023-03-04T21:09:48.391Z,5.80
2023-03-04T21:12:16.185Z,5.70
2023-03-04T21:14:44.810Z,5.70
2023-03-04T21:17:14.359Z,5.70
2023-03-04T21:19:44.167Z,5.80
2023-03-04T21:22:15.863Z,5.70
2023-03-04T21:24:46.701Z,5.60
2023-03-04T21:27:16.417Z,5.60
2023-03-04T21:29:44.217Z,5.50
2023-03-04T21:32:23.925Z,5.50
2023-03-04T21:34:54.049Z,5.50
2023-03-04T21:37:22.670Z,5.50
2023-03-04T21:39:52.215Z,5.50
2023-03-04T21:42:20.400Z,5.50
2023-03-04T21:44:50.088Z,5.50
2023-03-04T21:47:18.881Z,5.50
2023-03-04T21:49:46.624Z,5.60
2023-03-04T21:52:14.496Z,5.60
2023-03-04T21:54:42.280Z,5.60
2023-03-04T21:57:11.583Z,5.60
2023-03-04T21:59:39.904Z,5.60
2023-03-04T22:02:08.520Z,5.60
2023-03-04T22:04:36.329Z,5.60
2023-03-04T22:07:04.286Z,5.60
2023-03-04T22:09:34.235Z,5.60
2023-03-04T22:12:01.926Z,5.60
2023-03-04T22:14:33.784Z,5.50
2023-03-04T22:17:01.604Z,5.40
2023-03-04T22:19:32.941Z,5.40
2023-03-04T22:22:00.781Z,5.30
2023-03-04T22:24:28.742Z,5.30
2023-03-04T22:26:57.540Z,5.20
2023-03-04T22:29:25.319Z,5.20
2023-03-04T22:31:55.015Z,5.20
2023-03-04T22:34:22.856Z,5.30
2023-03-04T22:36:50.598Z,5.30
2023-03-04T22:39:20.011Z,5.30
2023-03-04T22:41:48.345Z,5.30
2023-03-04T22:44:16.215Z,5.30
2023-03-04T22:46:44.663Z,5.40
2023-03-04T22:49:15.308Z,5.40
2023-03-04T22:51:44.822Z,5.40
2023-03-04T22:54:13.846Z,5.40
2023-03-04T22:56:41.733Z,5.40
2023-03-04T22:59:09.498Z,5.40
2023-03-04T23:01:38.035Z,5.40
2023-03-04T23:04:06.054Z,5.30
2023-03-04T23:06:36.184Z,5.30
2023-03-04T23:09:04.564Z,5.30
2023-03-04T23:11:35.255Z,5.40
2023-03-04T23:14:06.299Z,5.40
2023-03-04T23:16:36.882Z,5.40
2023-03-04T23:19:05.731Z,5.40
2023-03-04T23:21:35.133Z,5.40
2023-03-04T23:24:04.385Z,5.40
2023-03-04T23:26:34.873Z,5.40
2023-03-04T23:29:04.957Z,5.40
2023-03-04T23:31:35.339Z,5.40
2023-03-04T23:34:04.391Z,5.40
2023-03-04T23:36:34.048Z,5.30
2023-03-04T23:39:04.271Z,5.30
2023-03-04T23:41:32.782Z,5.30
2023-03-04T23:44:01.587Z,5.30
2023-03-04T23:46:29.946Z,5.30
2023-03-04T23:48:58.126Z,5.30
2023-03-04T23:51:28.025Z,5.20
2023-03-04T23:53:57.601Z,5.20
2023-03-04T23:56:29.576Z,5.20
2023-03-04T23:58:58.545Z,5.20
